AAL202 KSAN-KSJC
Flight info
| Callsign | AAL202 |
|---|---|
| Flight time | 1h 10m |
| Altitude | 34000 |
| Route | PADRZ2 IKAYE TESEA SCTRR TROXX SILCN6 |
| Aircraft | A321/M-SDE3FGHIRWY/LB1 |
Departure
| Time | 2026-04-25 15:38 |
|---|---|
| Airport | San Diego International Airport (KSAN) |
Arrival
| Time | 2026-04-25 16:48 |
|---|---|
| Airport | Norman Y. Mineta San Jose International Airport (KSJC) |
| Time | Latitude | Longitude | Altitude | Speed | Heading |
|---|---|---|---|---|---|
| 2026-04-25 15:14 | 32.73250 | -117.20161 | 19 ft | 0 kts | 111° |
| 2026-04-25 15:26 | 32.73250 | -117.20162 | 19 ft | 0 kts | 111° |
| 2026-04-25 15:26 | 32.73250 | -117.20164 | 19 ft | 1 kts | 111° |
| 2026-04-25 15:26 | 32.73255 | -117.20180 | 19 ft | 2 kts | 111° |
| 2026-04-25 15:27 | 32.73261 | -117.20197 | 19 ft | 2 kts | 111° |
| 2026-04-25 15:27 | 32.73266 | -117.20213 | 19 ft | 2 kts | 111° |
| 2026-04-25 15:27 | 32.73276 | -117.20244 | 19 ft | 0 kts | 111° |
| 2026-04-25 15:28 | 32.73278 | -117.20254 | 19 ft | 1 kts | 72° |
| 2026-04-25 15:28 | 32.73272 | -117.20263 | 19 ft | 1 kts | 15° |
| 2026-04-25 15:28 | 32.73265 | -117.20264 | 19 ft | 1 kts | 351° |
| 2026-04-25 15:28 | 32.73261 | -117.20263 | 19 ft | 0 kts | 357° |
| 2026-04-25 15:30 | 32.73307 | -117.20266 | 19 ft | 9 kts | 356° |
| 2026-04-25 15:30 | 32.73375 | -117.20278 | 19 ft | 7 kts | 353° |
| 2026-04-25 15:31 | 32.73408 | -117.20274 | 19 ft | 4 kts | 15° |
| 2026-04-25 15:31 | 32.73479 | -117.20250 | 19 ft | 13 kts | 17° |
| 2026-04-25 15:31 | 32.73540 | -117.20186 | 19 ft | 12 kts | 88° |
| 2026-04-25 15:31 | 32.73513 | -117.20042 | 19 ft | 21 kts | 106° |
| 2026-04-25 15:32 | 32.73472 | -117.19871 | 19 ft | 23 kts | 106° |
| 2026-04-25 15:32 | 32.73424 | -117.19677 | 21 ft | 24 kts | 106° |
| 2026-04-25 15:32 | 32.73378 | -117.19489 | 23 ft | 22 kts | 107° |
| 2026-04-25 15:33 | 32.73293 | -117.19139 | 22 ft | 21 kts | 106° |
| 2026-04-25 15:33 | 32.73254 | -117.18968 | 21 ft | 21 kts | 106° |
| 2026-04-25 15:33 | 32.73211 | -117.18799 | 20 ft | 21 kts | 107° |
| 2026-04-25 15:33 | 32.73172 | -117.18630 | 20 ft | 21 kts | 108° |
| 2026-04-25 15:34 | 32.73130 | -117.18465 | 19 ft | 20 kts | 106° |
| 2026-04-25 15:34 | 32.73091 | -117.18304 | 20 ft | 20 kts | 105° |
| 2026-04-25 15:34 | 32.73054 | -117.18143 | 19 ft | 19 kts | 105° |
| 2026-04-25 15:34 | 32.73042 | -117.18092 | 20 ft | 19 kts | 106° |
| 2026-04-25 15:35 | 32.72964 | -117.17746 | 24 ft | 0 kts | 87° |
| 2026-04-25 15:36 | 32.72966 | -117.17718 | 24 ft | 8 kts | 82° |
| 2026-04-25 15:37 | 32.73011 | -117.17673 | 26 ft | 11 kts | 9° |
| 2026-04-25 15:37 | 32.73059 | -117.17736 | 25 ft | 12 kts | 286° |
| 2026-04-25 15:37 | 32.73135 | -117.18061 | 21 ft | 80 kts | 285° |
| 2026-04-25 15:37 | 32.73356 | -117.18970 | 23 ft | 149 kts | 287° |
| 2026-04-25 15:38 | 32.73699 | -117.20303 | 364 ft | 177 kts | 287° |
| 2026-04-25 15:38 | 32.74092 | -117.21709 | 1135 ft | 183 kts | 292° |
| 2026-04-25 15:38 | 32.74726 | -117.23000 | 1678 ft | 184 kts | 304° |
| 2026-04-25 15:38 | 32.75491 | -117.24236 | 2058 ft | 190 kts | 306° |
| 2026-04-25 15:39 | 32.76296 | -117.25537 | 2294 ft | 205 kts | 305° |
| 2026-04-25 15:39 | 32.77158 | -117.26976 | 2564 ft | 221 kts | 304° |
| 2026-04-25 15:39 | 32.78077 | -117.28552 | 2828 ft | 239 kts | 304° |
| 2026-04-25 15:39 | 32.79046 | -117.30239 | 3330 ft | 247 kts | 304° |
| 2026-04-25 15:40 | 32.80047 | -117.31943 | 3996 ft | 248 kts | 306° |
| 2026-04-25 15:40 | 32.80397 | -117.32495 | 4226 ft | 248 kts | 307° |
| 2026-04-25 15:40 | 32.82189 | -117.35252 | 5216 ft | 255 kts | 307° |
| 2026-04-25 15:40 | 32.83288 | -117.36942 | 5712 ft | 263 kts | 307° |
| 2026-04-25 15:41 | 32.84407 | -117.38668 | 6384 ft | 264 kts | 306° |
| 2026-04-25 15:41 | 32.85516 | -117.40384 | 7043 ft | 265 kts | 306° |
| 2026-04-25 15:41 | 32.86637 | -117.42118 | 7681 ft | 266 kts | 305° |
| 2026-04-25 15:41 | 32.87767 | -117.43874 | 8305 ft | 268 kts | 304° |
| 2026-04-25 15:42 | 32.88909 | -117.45648 | 8917 ft | 270 kts | 304° |
| 2026-04-25 15:42 | 32.90052 | -117.47424 | 9512 ft | 272 kts | 304° |
| 2026-04-25 15:42 | 32.91187 | -117.49191 | 10094 ft | 273 kts | 303° |
| 2026-04-25 15:42 | 32.92357 | -117.51015 | 10459 ft | 284 kts | 303° |
| 2026-04-25 15:43 | 32.93585 | -117.52933 | 10725 ft | 297 kts | 303° |
| 2026-04-25 15:43 | 32.94887 | -117.54964 | 10976 ft | 311 kts | 303° |
| 2026-04-25 15:43 | 32.96233 | -117.57063 | 11212 ft | 324 kts | 303° |
| 2026-04-25 15:43 | 32.97646 | -117.59266 | 11468 ft | 337 kts | 303° |
| 2026-04-25 15:44 | 32.99094 | -117.61523 | 11889 ft | 343 kts | 303° |
| 2026-04-25 15:44 | 33.00539 | -117.63774 | 12410 ft | 345 kts | 303° |
| 2026-04-25 15:44 | 33.02019 | -117.66084 | 12940 ft | 347 kts | 302° |
| 2026-04-25 15:44 | 33.03489 | -117.68381 | 13473 ft | 349 kts | 302° |
| 2026-04-25 15:45 | 33.04988 | -117.70689 | 13981 ft | 352 kts | 304° |
| 2026-04-25 15:45 | 33.06647 | -117.72920 | 14472 ft | 357 kts | 308° |
| 2026-04-25 15:45 | 33.08484 | -117.75019 | 14973 ft | 363 kts | 313° |
| 2026-04-25 15:45 | 33.09125 | -117.75687 | 15137 ft | 364 kts | 314° |
| 2026-04-25 15:46 | 33.12352 | -117.78983 | 15909 ft | 369 kts | 314° |
| 2026-04-25 15:46 | 33.14336 | -117.80997 | 16369 ft | 371 kts | 314° |
| 2026-04-25 15:46 | 33.16336 | -117.83030 | 16790 ft | 374 kts | 314° |
| 2026-04-25 15:46 | 33.18359 | -117.85093 | 17196 ft | 377 kts | 314° |
| 2026-04-25 15:47 | 33.20306 | -117.87226 | 17614 ft | 377 kts | 310° |
| 2026-04-25 15:47 | 33.22203 | -117.89455 | 18027 ft | 380 kts | 310° |
| 2026-04-25 15:47 | 33.24098 | -117.91709 | 18435 ft | 382 kts | 310° |
| 2026-04-25 15:47 | 33.25996 | -117.93974 | 18848 ft | 384 kts | 310° |
| 2026-04-25 15:48 | 33.27862 | -117.96200 | 19261 ft | 386 kts | 310° |
| 2026-04-25 15:48 | 33.29775 | -117.98485 | 19669 ft | 387 kts | 309° |
| 2026-04-25 15:48 | 33.31682 | -118.00762 | 20055 ft | 389 kts | 309° |
| 2026-04-25 15:48 | 33.33590 | -118.03043 | 20425 ft | 392 kts | 309° |
| 2026-04-25 15:49 | 33.35529 | -118.05363 | 20794 ft | 394 kts | 309° |
| 2026-04-25 15:49 | 33.37482 | -118.07703 | 21178 ft | 395 kts | 309° |
| 2026-04-25 15:49 | 33.39436 | -118.10049 | 21524 ft | 397 kts | 309° |
| 2026-04-25 15:49 | 33.41435 | -118.12447 | 21874 ft | 400 kts | 309° |
| 2026-04-25 15:50 | 33.43425 | -118.14837 | 22210 ft | 402 kts | 309° |
| 2026-04-25 15:50 | 33.45417 | -118.17230 | 22539 ft | 404 kts | 309° |
| 2026-04-25 15:50 | 33.47418 | -118.19634 | 22879 ft | 405 kts | 309° |
| 2026-04-25 15:50 | 33.49413 | -118.22032 | 23198 ft | 407 kts | 309° |
| 2026-04-25 15:51 | 33.51433 | -118.24463 | 23516 ft | 409 kts | 309° |
| 2026-04-25 15:51 | 33.52112 | -118.25281 | 23625 ft | 409 kts | 309° |
| 2026-04-25 15:51 | 33.55472 | -118.29325 | 24135 ft | 412 kts | 309° |
| 2026-04-25 15:51 | 33.57525 | -118.31799 | 24434 ft | 413 kts | 308° |
| 2026-04-25 15:52 | 33.59594 | -118.34295 | 24736 ft | 415 kts | 308° |
| 2026-04-25 15:52 | 33.61665 | -118.36796 | 25017 ft | 417 kts | 308° |
| 2026-04-25 15:52 | 33.63732 | -118.39292 | 25289 ft | 419 kts | 308° |
| 2026-04-25 15:52 | 33.65814 | -118.41811 | 25555 ft | 420 kts | 308° |
| 2026-04-25 15:53 | 33.67917 | -118.44356 | 25840 ft | 421 kts | 308° |
| 2026-04-25 15:53 | 33.70047 | -118.46933 | 26129 ft | 422 kts | 308° |
| 2026-04-25 15:53 | 33.72123 | -118.49448 | 26384 ft | 424 kts | 308° |
| 2026-04-25 15:53 | 33.74249 | -118.52026 | 26628 ft | 426 kts | 308° |
| 2026-04-25 15:54 | 33.76368 | -118.54597 | 26862 ft | 428 kts | 309° |
| 2026-04-25 15:54 | 33.78486 | -118.57171 | 27101 ft | 429 kts | 308° |
| 2026-04-25 15:54 | 33.80683 | -118.59839 | 27334 ft | 431 kts | 309° |
| 2026-04-25 15:54 | 33.82838 | -118.62461 | 27563 ft | 432 kts | 309° |
| 2026-04-25 15:55 | 33.84999 | -118.65093 | 27781 ft | 434 kts | 308° |
| 2026-04-25 15:55 | 33.87174 | -118.67742 | 28017 ft | 435 kts | 308° |
| 2026-04-25 15:55 | 33.89333 | -118.70374 | 28273 ft | 436 kts | 308° |
| 2026-04-25 15:55 | 33.91464 | -118.72972 | 28598 ft | 435 kts | 308° |
| 2026-04-25 15:56 | 33.93609 | -118.75588 | 28950 ft | 433 kts | 308° |
| 2026-04-25 15:56 | 33.95817 | -118.78285 | 29276 ft | 432 kts | 308° |
| 2026-04-25 15:56 | 33.97961 | -118.80907 | 29555 ft | 431 kts | 308° |
| 2026-04-25 15:56 | 34.00072 | -118.83491 | 29847 ft | 430 kts | 308° |
| 2026-04-25 15:57 | 34.02218 | -118.86123 | 30131 ft | 429 kts | 308° |
| 2026-04-25 15:57 | 34.04346 | -118.88731 | 30412 ft | 428 kts | 308° |
| 2026-04-25 15:57 | 34.06506 | -118.91379 | 30678 ft | 427 kts | 308° |
| 2026-04-25 15:57 | 34.08660 | -118.94026 | 30902 ft | 427 kts | 308° |
| 2026-04-25 15:58 | 34.10772 | -118.96625 | 31115 ft | 427 kts | 308° |
| 2026-04-25 15:58 | 34.12857 | -118.99191 | 31332 ft | 427 kts | 308° |
| 2026-04-25 15:58 | 34.14961 | -119.01769 | 31570 ft | 426 kts | 308° |
| 2026-04-25 15:58 | 34.17056 | -119.04269 | 31807 ft | 425 kts | 309° |
| 2026-04-25 15:59 | 34.19172 | -119.06774 | 32037 ft | 425 kts | 309° |
| 2026-04-25 15:59 | 34.21283 | -119.09275 | 32239 ft | 424 kts | 309° |
| 2026-04-25 15:59 | 34.23414 | -119.11806 | 32411 ft | 425 kts | 309° |
| 2026-04-25 15:59 | 34.25553 | -119.14352 | 32556 ft | 425 kts | 308° |
| 2026-04-25 16:00 | 34.27661 | -119.16865 | 32691 ft | 426 kts | 308° |
| 2026-04-25 16:00 | 34.28376 | -119.17718 | 32736 ft | 427 kts | 308° |
| 2026-04-25 16:00 | 34.31964 | -119.22007 | 33017 ft | 427 kts | 308° |
| 2026-04-25 16:00 | 34.34135 | -119.24607 | 33152 ft | 427 kts | 308° |
| 2026-04-25 16:01 | 34.36327 | -119.27234 | 33297 ft | 428 kts | 308° |
| 2026-04-25 16:01 | 34.38519 | -119.29859 | 33438 ft | 428 kts | 308° |
| 2026-04-25 16:01 | 34.40700 | -119.32476 | 33580 ft | 429 kts | 308° |
| 2026-04-25 16:01 | 34.42854 | -119.35062 | 33747 ft | 429 kts | 308° |
| 2026-04-25 16:02 | 34.45016 | -119.37659 | 33877 ft | 429 kts | 308° |
| 2026-04-25 16:02 | 34.47176 | -119.40256 | 33928 ft | 430 kts | 308° |
| 2026-04-25 16:02 | 34.51489 | -119.45450 | 33940 ft | 430 kts | 308° |
| 2026-04-25 16:03 | 34.55779 | -119.50622 | 33955 ft | 431 kts | 308° |
| 2026-04-25 16:03 | 34.60090 | -119.55828 | 33941 ft | 431 kts | 308° |
| 2026-04-25 16:04 | 34.64366 | -119.60999 | 33953 ft | 431 kts | 308° |
| 2026-04-25 16:04 | 34.68707 | -119.66260 | 33925 ft | 431 kts | 308° |
| 2026-04-25 16:05 | 34.72958 | -119.71415 | 33937 ft | 430 kts | 308° |
| 2026-04-25 16:06 | 34.79370 | -119.79210 | 33924 ft | 432 kts | 308° |
| 2026-04-25 16:06 | 34.83698 | -119.84483 | 33930 ft | 432 kts | 308° |
| 2026-04-25 16:07 | 34.87999 | -119.89729 | 33927 ft | 432 kts | 308° |
| 2026-04-25 16:07 | 34.92348 | -119.95045 | 33932 ft | 431 kts | 308° |
| 2026-04-25 16:08 | 34.96634 | -120.00291 | 33931 ft | 432 kts | 308° |
| 2026-04-25 16:08 | 35.00926 | -120.05555 | 33927 ft | 433 kts | 308° |
| 2026-04-25 16:09 | 35.05193 | -120.10799 | 33928 ft | 433 kts | 308° |
| 2026-04-25 16:09 | 35.09463 | -120.16053 | 33933 ft | 433 kts | 308° |
| 2026-04-25 16:10 | 35.13708 | -120.21281 | 33945 ft | 434 kts | 308° |
| 2026-04-25 16:10 | 35.18175 | -120.26348 | 33946 ft | 439 kts | 313° |
| 2026-04-25 16:11 | 35.23119 | -120.31012 | 33953 ft | 442 kts | 316° |
| 2026-04-25 16:11 | 35.28092 | -120.35549 | 33949 ft | 442 kts | 316° |
| 2026-04-25 16:12 | 35.33117 | -120.40147 | 33942 ft | 442 kts | 316° |
| 2026-04-25 16:12 | 35.38117 | -120.44737 | 33941 ft | 444 kts | 316° |
| 2026-04-25 16:13 | 35.43122 | -120.49344 | 33939 ft | 444 kts | 316° |
| 2026-04-25 16:13 | 35.48157 | -120.53982 | 33940 ft | 444 kts | 316° |
| 2026-04-25 16:14 | 35.53199 | -120.58524 | 33943 ft | 447 kts | 319° |
| 2026-04-25 16:14 | 35.58528 | -120.62746 | 33945 ft | 450 kts | 321° |
| 2026-04-25 16:15 | 35.63892 | -120.66933 | 33949 ft | 450 kts | 320° |
| 2026-04-25 16:15 | 35.69252 | -120.71137 | 33732 ft | 450 kts | 320° |
| 2026-04-25 16:15 | 35.71918 | -120.73231 | 33287 ft | 448 kts | 320° |
| 2026-04-25 16:16 | 35.74567 | -120.75317 | 32692 ft | 447 kts | 320° |
| 2026-04-25 16:16 | 35.77251 | -120.77434 | 31940 ft | 450 kts | 321° |
| 2026-04-25 16:16 | 35.79974 | -120.79586 | 31136 ft | 453 kts | 321° |
| 2026-04-25 16:16 | 35.82715 | -120.81751 | 30309 ft | 456 kts | 321° |
| 2026-04-25 16:17 | 35.85457 | -120.83917 | 29437 ft | 460 kts | 321° |
| 2026-04-25 16:17 | 35.88184 | -120.86074 | 28629 ft | 462 kts | 321° |
| 2026-04-25 16:17 | 35.90960 | -120.88271 | 27816 ft | 464 kts | 322° |
| 2026-04-25 16:17 | 35.93766 | -120.90492 | 27229 ft | 460 kts | 322° |
| 2026-04-25 16:18 | 35.96509 | -120.92660 | 27030 ft | 452 kts | 322° |
| 2026-04-25 16:18 | 35.97416 | -120.93379 | 26977 ft | 451 kts | 322° |
| 2026-04-25 16:18 | 36.01794 | -120.97002 | 26553 ft | 438 kts | 318° |
| 2026-04-25 16:18 | 36.04283 | -120.99318 | 26166 ft | 429 kts | 317° |
| 2026-04-25 16:19 | 36.06697 | -121.01612 | 25660 ft | 425 kts | 317° |
| 2026-04-25 16:19 | 36.09065 | -121.03874 | 25159 ft | 421 kts | 317° |
| 2026-04-25 16:19 | 36.11465 | -121.06165 | 24734 ft | 414 kts | 317° |
| 2026-04-25 16:20 | 36.16116 | -121.10607 | 23674 ft | 409 kts | 317° |
| 2026-04-25 16:20 | 36.18373 | -121.12763 | 23211 ft | 405 kts | 318° |
| 2026-04-25 16:20 | 36.22819 | -121.17012 | 22327 ft | 397 kts | 318° |
| 2026-04-25 16:21 | 36.25024 | -121.19121 | 21871 ft | 394 kts | 318° |
| 2026-04-25 16:21 | 36.27239 | -121.21242 | 21423 ft | 391 kts | 318° |
| 2026-04-25 16:21 | 36.29404 | -121.23317 | 20987 ft | 387 kts | 319° |
| 2026-04-25 16:21 | 36.31546 | -121.25369 | 20563 ft | 384 kts | 319° |
| 2026-04-25 16:22 | 36.33674 | -121.27409 | 20123 ft | 382 kts | 319° |
| 2026-04-25 16:22 | 36.35769 | -121.29416 | 19888 ft | 373 kts | 319° |
| 2026-04-25 16:22 | 36.37814 | -121.31382 | 19418 ft | 373 kts | 319° |
| 2026-04-25 16:22 | 36.39890 | -121.33385 | 18904 ft | 373 kts | 319° |
| 2026-04-25 16:23 | 36.41973 | -121.35396 | 18460 ft | 371 kts | 320° |
| 2026-04-25 16:23 | 36.43993 | -121.37346 | 18063 ft | 368 kts | 320° |
| 2026-04-25 16:23 | 36.46038 | -121.39322 | 17675 ft | 365 kts | 320° |
| 2026-04-25 16:23 | 36.48041 | -121.41248 | 17292 ft | 362 kts | 322° |
| 2026-04-25 16:24 | 36.50161 | -121.42909 | 16880 ft | 361 kts | 331° |
| 2026-04-25 16:24 | 36.52467 | -121.44168 | 16482 ft | 359 kts | 339° |
| 2026-04-25 16:24 | 36.54835 | -121.45191 | 16088 ft | 357 kts | 341° |
| 2026-04-25 16:24 | 36.57215 | -121.46173 | 15683 ft | 354 kts | 341° |
| 2026-04-25 16:25 | 36.59531 | -121.47129 | 15295 ft | 352 kts | 341° |
| 2026-04-25 16:25 | 36.60312 | -121.47454 | 15163 ft | 351 kts | 341° |
| 2026-04-25 16:25 | 36.64162 | -121.49068 | 14509 ft | 346 kts | 342° |
| 2026-04-25 16:25 | 36.66439 | -121.50027 | 14136 ft | 343 kts | 342° |
| 2026-04-25 16:26 | 36.68675 | -121.50971 | 13765 ft | 340 kts | 342° |
| 2026-04-25 16:26 | 36.70929 | -121.51925 | 13382 ft | 338 kts | 342° |
| 2026-04-25 16:26 | 36.73163 | -121.52869 | 12963 ft | 336 kts | 342° |
| 2026-04-25 16:26 | 36.75386 | -121.53809 | 12539 ft | 335 kts | 342° |
| 2026-04-25 16:27 | 36.77613 | -121.54753 | 12132 ft | 333 kts | 342° |
| 2026-04-25 16:27 | 36.79787 | -121.55676 | 11873 ft | 327 kts | 342° |
| 2026-04-25 16:27 | 36.81936 | -121.56589 | 11621 ft | 321 kts | 341° |
| 2026-04-25 16:27 | 36.84029 | -121.57481 | 11361 ft | 315 kts | 341° |
| 2026-04-25 16:28 | 36.86107 | -121.58366 | 11074 ft | 311 kts | 341° |
| 2026-04-25 16:28 | 36.88127 | -121.59227 | 10795 ft | 306 kts | 341° |
| 2026-04-25 16:28 | 36.90142 | -121.60085 | 10515 ft | 302 kts | 341° |
| 2026-04-25 16:28 | 36.92141 | -121.60938 | 10242 ft | 298 kts | 341° |
| 2026-04-25 16:29 | 36.94096 | -121.61770 | 9970 ft | 293 kts | 341° |
| 2026-04-25 16:29 | 36.96022 | -121.62586 | 9680 ft | 290 kts | 341° |
| 2026-04-25 16:29 | 36.97917 | -121.63390 | 9349 ft | 289 kts | 341° |
| 2026-04-25 16:29 | 36.99833 | -121.64204 | 9005 ft | 288 kts | 341° |
| 2026-04-25 16:30 | 37.01746 | -121.65015 | 8659 ft | 287 kts | 341° |
| 2026-04-25 16:30 | 37.03616 | -121.65809 | 8315 ft | 286 kts | 340° |
| 2026-04-25 16:30 | 37.05505 | -121.66612 | 7975 ft | 285 kts | 340° |
| 2026-04-25 16:30 | 37.07393 | -121.67415 | 7649 ft | 284 kts | 340° |
| 2026-04-25 16:31 | 37.09266 | -121.68212 | 7337 ft | 282 kts | 340° |
| 2026-04-25 16:31 | 37.11147 | -121.69014 | 7009 ft | 281 kts | 340° |
| 2026-04-25 16:31 | 37.13002 | -121.69804 | 6690 ft | 279 kts | 340° |
| 2026-04-25 16:31 | 37.14846 | -121.70589 | 6371 ft | 277 kts | 340° |
| 2026-04-25 16:32 | 37.16614 | -121.71548 | 6085 ft | 272 kts | 326° |
| 2026-04-25 16:32 | 37.18098 | -121.72966 | 5839 ft | 267 kts | 317° |
| 2026-04-25 16:32 | 37.19478 | -121.74493 | 5609 ft | 261 kts | 316° |
| 2026-04-25 16:32 | 37.20833 | -121.76018 | 5213 ft | 262 kts | 316° |
| 2026-04-25 16:33 | 37.22219 | -121.77565 | 4517 ft | 272 kts | 317° |
| 2026-04-25 16:33 | 37.23641 | -121.79134 | 3944 ft | 274 kts | 317° |
| 2026-04-25 16:33 | 37.25073 | -121.80705 | 3536 ft | 269 kts | 317° |
| 2026-04-25 16:33 | 37.26471 | -121.82232 | 3119 ft | 265 kts | 318° |
| 2026-04-25 16:34 | 37.27838 | -121.83704 | 2921 ft | 247 kts | 318° |
| 2026-04-25 16:34 | 37.29093 | -121.85033 | 2794 ft | 225 kts | 318° |
| 2026-04-25 16:34 | 37.30255 | -121.86240 | 2592 ft | 211 kts | 319° |
| 2026-04-25 16:34 | 37.31363 | -121.87441 | 2169 ft | 207 kts | 317° |
| 2026-04-25 16:35 | 37.32387 | -121.88657 | 1716 ft | 203 kts | 311° |
| 2026-04-25 16:35 | 37.33394 | -121.89903 | 1177 ft | 206 kts | 319° |
| 2026-04-25 16:35 | 37.34541 | -121.91021 | 574 ft | 208 kts | 315° |
| 2026-04-25 16:35 | 37.35605 | -121.92269 | 109 ft | 204 kts | 316° |
| 2026-04-25 16:36 | 37.36617 | -121.93353 | 83 ft | 180 kts | 311° |
| 2026-04-25 16:36 | 37.36930 | -121.93707 | 163 ft | 185 kts | 314° |
| 2026-04-25 16:36 | 37.38677 | -121.95744 | 944 ft | 218 kts | 310° |
| 2026-04-25 16:36 | 37.39708 | -121.97140 | 1603 ft | 220 kts | 311° |
| 2026-04-25 16:37 | 37.40678 | -121.98653 | 2110 ft | 229 kts | 295° |
| 2026-04-25 16:37 | 37.41012 | -122.00641 | 2509 ft | 241 kts | 263° |
| 2026-04-25 16:37 | 37.40538 | -122.02645 | 3155 ft | 243 kts | 240° |
| 2026-04-25 16:37 | 37.39404 | -122.04186 | 3812 ft | 246 kts | 211° |
| 2026-04-25 16:38 | 37.37765 | -122.04855 | 4469 ft | 251 kts | 184° |
| 2026-04-25 16:38 | 37.36019 | -122.04726 | 4882 ft | 253 kts | 172° |
| 2026-04-25 16:38 | 37.34339 | -122.04028 | 4982 ft | 256 kts | 155° |
| 2026-04-25 16:38 | 37.32771 | -122.02962 | 4980 ft | 255 kts | 151° |
| 2026-04-25 16:39 | 37.31240 | -122.01843 | 4980 ft | 256 kts | 150° |
| 2026-04-25 16:39 | 37.29697 | -122.00699 | 4981 ft | 257 kts | 150° |
| 2026-04-25 16:39 | 37.28166 | -121.99560 | 4875 ft | 253 kts | 150° |
| 2026-04-25 16:39 | 37.26634 | -121.98420 | 4520 ft | 254 kts | 150° |
| 2026-04-25 16:40 | 37.25119 | -121.97291 | 4196 ft | 254 kts | 150° |
| 2026-04-25 16:40 | 37.23629 | -121.96100 | 3891 ft | 254 kts | 141° |
| 2026-04-25 16:40 | 37.22367 | -121.94539 | 3595 ft | 254 kts | 133° |
| 2026-04-25 16:40 | 37.21375 | -121.92724 | 3287 ft | 254 kts | 116° |
| 2026-04-25 16:41 | 37.20678 | -121.90698 | 3191 ft | 244 kts | 112° |
| 2026-04-25 16:41 | 37.20470 | -121.90043 | 3185 ft | 240 kts | 113° |
| 2026-04-25 16:41 | 37.18693 | -121.85365 | 3154 ft | 204 kts | 117° |
| 2026-04-25 16:42 | 37.18098 | -121.83855 | 3209 ft | 185 kts | 117° |
| 2026-04-25 16:42 | 37.17540 | -121.82417 | 3203 ft | 181 kts | 113° |
| 2026-04-25 16:42 | 37.17236 | -121.80876 | 3193 ft | 182 kts | 99° |
| 2026-04-25 16:42 | 37.17268 | -121.79294 | 3162 ft | 183 kts | 69° |
| 2026-04-25 16:43 | 37.18068 | -121.78091 | 3200 ft | 182 kts | 31° |
| 2026-04-25 16:43 | 37.19241 | -121.77519 | 3200 ft | 181 kts | 10° |
| 2026-04-25 16:43 | 37.20489 | -121.77318 | 3190 ft | 180 kts | 1° |
| 2026-04-25 16:43 | 37.21703 | -121.77560 | 3176 ft | 177 kts | 336° |
| 2026-04-25 16:44 | 37.22773 | -121.78324 | 3185 ft | 177 kts | 323° |
| 2026-04-25 16:44 | 37.23748 | -121.79264 | 3119 ft | 178 kts | 319° |
| 2026-04-25 16:44 | 37.24699 | -121.80270 | 2900 ft | 176 kts | 317° |
| 2026-04-25 16:44 | 37.25615 | -121.81274 | 2665 ft | 175 kts | 316° |
| 2026-04-25 16:45 | 37.26528 | -121.82285 | 2429 ft | 174 kts | 317° |
| 2026-04-25 16:45 | 37.27432 | -121.83283 | 2197 ft | 172 kts | 317° |
| 2026-04-25 16:45 | 37.28308 | -121.84247 | 1962 ft | 164 kts | 317° |
| 2026-04-25 16:45 | 37.29131 | -121.85150 | 1721 ft | 150 kts | 316° |
| 2026-04-25 16:46 | 37.29909 | -121.86006 | 1528 ft | 148 kts | 316° |
| 2026-04-25 16:46 | 37.30690 | -121.86865 | 1347 ft | 148 kts | 316° |
| 2026-04-25 16:46 | 37.31462 | -121.87713 | 1161 ft | 148 kts | 316° |
| 2026-04-25 16:46 | 37.31724 | -121.88000 | 1096 ft | 148 kts | 316° |
| 2026-04-25 16:47 | 37.33016 | -121.89417 | 771 ft | 148 kts | 316° |
| 2026-04-25 16:47 | 37.33785 | -121.90268 | 575 ft | 148 kts | 315° |
| 2026-04-25 16:47 | 37.34566 | -121.91129 | 327 ft | 147 kts | 317° |
| 2026-04-25 16:47 | 37.35337 | -121.91974 | 121 ft | 147 kts | 317° |
| 2026-04-25 16:48 | 37.36093 | -121.92807 | 54 ft | 140 kts | 321° |
| 2026-04-25 16:48 | 37.36670 | -121.93430 | 47 ft | 54 kts | 317° |
| 2026-04-25 16:48 | 37.36943 | -121.93735 | 44 ft | 37 kts | 317° |
| 2026-04-25 16:48 | 37.37079 | -121.93839 | 44 ft | 15 kts | 1° |
| 2026-04-25 16:49 | 37.37143 | -121.93806 | 44 ft | 6 kts | 36° |
| 2026-04-25 16:49 | 37.37188 | -121.93752 | 42 ft | 12 kts | 47° |
| 2026-04-25 16:49 | 37.37247 | -121.93661 | 40 ft | 14 kts | 51° |
| 2026-04-25 16:49 | 37.37260 | -121.93600 | 40 ft | 3 kts | 130° |
| 2026-04-25 16:50 | 37.37216 | -121.93549 | 40 ft | 12 kts | 138° |
| 2026-04-25 16:50 | 37.37148 | -121.93473 | 40 ft | 13 kts | 139° |
| 2026-04-25 16:50 | 37.37076 | -121.93390 | 40 ft | 13 kts | 119° |
| 2026-04-25 16:50 | 37.37062 | -121.93295 | 39 ft | 10 kts | 131° |
| 2026-04-25 16:51 | 37.37035 | -121.93242 | 40 ft | 4 kts | 86° |
| 2026-04-25 16:51 | 37.37053 | -121.93199 | 39 ft | 5 kts | 53° |
| 2026-04-25 16:51 | 37.37060 | -121.93187 | 39 ft | 0 kts | 54° |